sensor_id;sensor_type;location;lat;lon;timestamp;temperature;humidity
10400;DHT22;10031;51.180;17.168;2022-10-18T00:01:21;9.80;99.90
10400;DHT22;10031;51.180;17.168;2022-10-18T00:03:46;9.70;99.90
10400;DHT22;10031;51.180;17.168;2022-10-18T00:06:12;9.80;99.90
10400;DHT22;10031;51.180;17.168;2022-10-18T00:08:38;9.70;99.90
10400;DHT22;10031;51.180;17.168;2022-10-18T00:11:05;9.70;99.90
10400;DHT22;10031;51.180;17.168;2022-10-18T00:15:59;9.50;99.90
10400;DHT22;10031;51.180;17.168;2022-10-18T00:18:26;9.40;99.90
10400;DHT22;10031;51.180;17.168;2022-10-18T00:21:03;9.50;99.90
10400;DHT22;10031;51.180;17.168;2022-10-18T00:23:30;9.40;99.90
10400;DHT22;10031;51.180;17.168;2022-10-18T00:26:17;9.40;99.90
10400;DHT22;10031;51.180;17.168;2022-10-18T00:28:44;9.30;99.90
10400;DHT22;10031;51.180;17.168;2022-10-18T00:31:25;9.30;99.90
10400;DHT22;10031;51.180;17.168;2022-10-18T00:33:54;9.40;99.90
10400;DHT22;10031;51.180;17.168;2022-10-18T00:38:46;9.40;99.90
10400;DHT22;10031;51.180;17.168;2022-10-18T00:41:15;9.30;99.90
10400;DHT22;10031;51.180;17.168;2022-10-18T00:43:55;9.30;99.90
10400;DHT22;10031;51.180;17.168;2022-10-18T00:46:22;9.40;99.90
10400;DHT22;10031;51.180;17.168;2022-10-18T00:51:16;9.00;99.90
10400;DHT22;10031;51.180;17.168;2022-10-18T00:56:09;8.90;99.90
10400;DHT22;10031;51.180;17.168;2022-10-18T01:03:27;8.80;99.90
10400;DHT22;10031;51.180;17.168;2022-10-18T01:11:20;8.70;99.90
10400;DHT22;10031;51.180;17.168;2022-10-18T01:14:03;8.70;99.90
10400;DHT22;10031;51.180;17.168;2022-10-18T01:16:51;8.60;99.90
10400;DHT22;10031;51.180;17.168;2022-10-18T01:21:58;8.30;99.90
10400;DHT22;10031;51.180;17.168;2022-10-18T01:32:40;8.60;99.90
10400;DHT22;10031;51.180;17.168;2022-10-18T01:35:13;8.50;99.90
10400;DHT22;10031;51.180;17.168;2022-10-18T01:40:12;8.60;99.90
10400;DHT22;10031;51.180;17.168;2022-10-18T01:45:05;8.50;99.90
10400;DHT22;10031;51.180;17.168;2022-10-18T01:47:33;8.40;99.90
10400;DHT22;10031;51.180;17.168;2022-10-18T01:50:04;8.40;99.90
10400;DHT22;10031;51.180;17.168;2022-10-18T01:54:57;8.50;99.90
10400;DHT22;10031;51.180;17.168;2022-10-18T01:57:34;8.60;99.90
10400;DHT22;10031;51.180;17.168;2022-10-18T02:00:23;8.50;99.90
10400;DHT22;10031;51.180;17.168;2022-10-18T02:03:21;8.30;99.90
10400;DHT22;10031;51.180;17.168;2022-10-18T02:05:56;8.60;99.90
10400;DHT22;10031;51.180;17.168;2022-10-18T02:13:35;8.20;99.90
10400;DHT22;10031;51.180;17.168;2022-10-18T02:16:07;8.20;99.90
10400;DHT22;10031;51.180;17.168;2022-10-18T02:21:06;8.20;99.90
10400;DHT22;10031;51.180;17.168;2022-10-18T02:35:58;8.20;99.90
10400;DHT22;10031;51.180;17.168;2022-10-18T02:55:28;8.10;99.90
10400;DHT22;10031;51.180;17.168;2022-10-18T03:10:06;8.20;99.90
10400;DHT22;10031;51.180;17.168;2022-10-18T03:22:16;8.30;99.90
10400;DHT22;10031;51.180;17.168;2022-10-18T03:29:33;8.10;99.90
10400;DHT22;10031;51.180;17.168;2022-10-18T03:34:25;8.10;99.90
10400;DHT22;10031;51.180;17.168;2022-10-18T03:53:53;7.70;99.90
10400;DHT22;10031;51.180;17.168;2022-10-18T03:56:18;7.50;99.90
10400;DHT22;10031;51.180;17.168;2022-10-18T04:06:02;7.90;99.90
10400;DHT22;10031;51.180;17.168;2022-10-18T04:30:22;7.60;99.90
10400;DHT22;10031;51.180;17.168;2022-10-18T04:40:09;7.80;99.90
10400;DHT22;10031;51.180;17.168;2022-10-18T04:49:54;7.80;99.90
10400;DHT22;10031;51.180;17.168;2022-10-18T04:54:46;7.40;99.90
10400;DHT22;10031;51.180;17.168;2022-10-18T05:02:04;7.80;99.90
10400;DHT22;10031;51.180;17.168;2022-10-18T05:09:21;7.60;99.90
10400;DHT22;10031;51.180;17.168;2022-10-18T05:16:41;7.40;99.90
10400;DHT22;10031;51.180;17.168;2022-10-18T05:38:44;7.70;99.90
10400;DHT22;10031;51.180;17.168;2022-10-18T05:51:01;7.50;99.90
10400;DHT22;10031;51.180;17.168;2022-10-18T05:53:27;7.50;99.90
10400;DHT22;10031;51.180;17.168;2022-10-18T06:25:06;8.80;99.90
10400;DHT22;10031;51.180;17.168;2022-10-18T06:27:33;9.00;99.90
10400;DHT22;10031;51.180;17.168;2022-10-18T06:29:59;9.20;99.90
10400;DHT22;10031;51.180;17.168;2022-10-18T06:32:25;9.40;99.90
10400;DHT22;10031;51.180;17.168;2022-10-18T06:54:22;10.60;99.90
10400;DHT22;10031;51.180;17.168;2022-10-18T06:56:55;10.70;99.90
10400;DHT22;10031;51.180;17.168;2022-10-18T07:04:13;11.00;99.90
10400;DHT22;10031;51.180;17.168;2022-10-18T07:06:40;11.20;99.90
10400;DHT22;10031;51.180;17.168;2022-10-18T07:11:34;11.60;99.90
10400;DHT22;10031;51.180;17.168;2022-10-18T07:14:01;11.70;99.90
10400;DHT22;10031;51.180;17.168;2022-10-18T07:16:31;12.00;99.90
10400;DHT22;10031;51.180;17.168;2022-10-18T07:21:24;12.20;99.90
10400;DHT22;10031;51.180;17.168;2022-10-18T07:23:51;12.40;99.90
10400;DHT22;10031;51.180;17.168;2022-10-18T07:28:54;12.60;99.90
10400;DHT22;10031;51.180;17.168;2022-10-18T07:31:23;12.60;99.90
10400;DHT22;10031;51.180;17.168;2022-10-18T07:33:50;12.60;99.90
10400;DHT22;10031;51.180;17.168;2022-10-18T07:38:43;12.70;99.90
10400;DHT22;10031;51.180;17.168;2022-10-18T07:41:11;13.10;99.90
10400;DHT22;10031;51.180;17.168;2022-10-18T07:43:40;13.30;99.90
10400;DHT22;10031;51.180;17.168;2022-10-18T07:48:34;13.40;99.90
10400;DHT22;10031;51.180;17.168;2022-10-18T07:51:00;13.60;99.90
10400;DHT22;10031;51.180;17.168;2022-10-18T07:53:27;13.60;99.90
10400;DHT22;10031;51.180;17.168;2022-10-18T07:55:59;13.70;99.90
10400;DHT22;10031;51.180;17.168;2022-10-18T07:58:26;13.90;99.90
10400;DHT22;10031;51.180;17.168;2022-10-18T08:00:52;14.10;99.90
10400;DHT22;10031;51.180;17.168;2022-10-18T08:03:18;14.20;99.90
10400;DHT22;10031;51.180;17.168;2022-10-18T08:05:50;14.30;99.90
10400;DHT22;10031;51.180;17.168;2022-10-18T08:08:17;14.50;99.90
10400;DHT22;10031;51.180;17.168;2022-10-18T08:13:11;14.70;99.90
10400;DHT22;10031;51.180;17.168;2022-10-18T08:25:29;15.00;99.90
10400;DHT22;10031;51.180;17.168;2022-10-18T08:30:22;15.10;99.90
10400;DHT22;10031;51.180;17.168;2022-10-18T08:32:51;15.20;99.90
10400;DHT22;10031;51.180;17.168;2022-10-18T08:35:17;15.50;99.90
10400;DHT22;10031;51.180;17.168;2022-10-18T08:37:43;15.30;99.90
10400;DHT22;10031;51.180;17.168;2022-10-18T08:40:13;15.60;99.90
10400;DHT22;10031;51.180;17.168;2022-10-18T08:43:25;15.70;99.90
10400;DHT22;10031;51.180;17.168;2022-10-18T08:45:53;15.80;99.90
10400;DHT22;10031;51.180;17.168;2022-10-18T08:48:46;16.00;99.90
10400;DHT22;10031;51.180;17.168;2022-10-18T08:57:00;16.20;99.90
10400;DHT22;10031;51.180;17.168;2022-10-18T08:59:33;16.40;99.90
10400;DHT22;10031;51.180;17.168;2022-10-18T09:05:29;16.70;99.90
10400;DHT22;10031;51.180;17.168;2022-10-18T09:10:31;17.00;99.90
10400;DHT22;10031;51.180;17.168;2022-10-18T09:16:16;17.10;99.90
10400;DHT22;10031;51.180;17.168;2022-10-18T09:18:57;17.20;99.90
10400;DHT22;10031;51.180;17.168;2022-10-18T09:24:12;17.60;99.90
10400;DHT22;10031;51.180;17.168;2022-10-18T09:36:51;17.80;99.90
10400;DHT22;10031;51.180;17.168;2022-10-18T09:39:43;17.80;99.90
10400;DHT22;10031;51.180;17.168;2022-10-18T09:42:35;18.00;99.90
10400;DHT22;10031;51.180;17.168;2022-10-18T09:48:11;17.90;99.90
10400;DHT22;10031;51.180;17.168;2022-10-18T09:50:51;17.90;99.90
10400;DHT22;10031;51.180;17.168;2022-10-18T09:56:49;18.20;99.90
10400;DHT22;10031;51.180;17.168;2022-10-18T10:02:04;18.40;99.90
10400;DHT22;10031;51.180;17.168;2022-10-18T10:04:30;18.40;99.90
10400;DHT22;10031;51.180;17.168;2022-10-18T10:06:59;18.60;99.90
10400;DHT22;10031;51.180;17.168;2022-10-18T10:09:35;18.80;99.90
10400;DHT22;10031;51.180;17.168;2022-10-18T10:12:01;19.00;99.90
10400;DHT22;10031;51.180;17.168;2022-10-18T10:14:28;19.20;99.90
10400;DHT22;10031;51.180;17.168;2022-10-18T10:17:04;19.20;99.90
10400;DHT22;10031;51.180;17.168;2022-10-18T10:22:05;19.00;99.90
10400;DHT22;10031;51.180;17.168;2022-10-18T10:24:53;19.10;99.90
10400;DHT22;10031;51.180;17.168;2022-10-18T10:27:33;19.20;99.90
10400;DHT22;10031;51.180;17.168;2022-10-18T10:30:02;19.30;99.90
10400;DHT22;10031;51.180;17.168;2022-10-18T10:34:57;19.50;99.90
10400;DHT22;10031;51.180;17.168;2022-10-18T10:37:32;19.50;99.90
10400;DHT22;10031;51.180;17.168;2022-10-18T10:40:18;19.70;99.90
10400;DHT22;10031;51.180;17.168;2022-10-18T10:45:24;19.60;99.90
10400;DHT22;10031;51.180;17.168;2022-10-18T10:47:52;19.50;99.90
10400;DHT22;10031;51.180;17.168;2022-10-18T10:50:25;19.40;99.90
10400;DHT22;10031;51.180;17.168;2022-10-18T10:52:52;19.50;99.90
10400;DHT22;10031;51.180;17.168;2022-10-18T10:55:23;19.60;99.90
10400;DHT22;10031;51.180;17.168;2022-10-18T10:57:53;19.70;99.90
10400;DHT22;10031;51.180;17.168;2022-10-18T11:00:36;19.40;99.90
10400;DHT22;10031;51.180;17.168;2022-10-18T11:03:21;19.40;99.90
10400;DHT22;10031;51.180;17.168;2022-10-18T11:08:27;19.50;99.90
10400;DHT22;10031;51.180;17.168;2022-10-18T11:11:25;19.50;99.90
10400;DHT22;10031;51.180;17.168;2022-10-18T11:14:03;19.70;99.90
10400;DHT22;10031;51.180;17.168;2022-10-18T11:16:56;19.80;99.90
10400;DHT22;10031;51.180;17.168;2022-10-18T11:23:05;19.80;99.90
10400;DHT22;10031;51.180;17.168;2022-10-18T11:25:54;19.80;99.90
10400;DHT22;10031;51.180;17.168;2022-10-18T11:28:38;19.70;99.90
10400;DHT22;10031;51.180;17.168;2022-10-18T11:31:32;19.80;99.90
10400;DHT22;10031;51.180;17.168;2022-10-18T11:34:36;19.70;99.90
10400;DHT22;10031;51.180;17.168;2022-10-18T11:42:45;19.70;99.90
10400;DHT22;10031;51.180;17.168;2022-10-18T11:45:31;19.70;99.90
10400;DHT22;10031;51.180;17.168;2022-10-18T11:48:31;20.10;99.90
10400;DHT22;10031;51.180;17.168;2022-10-18T11:51:14;19.90;99.90
10400;DHT22;10031;51.180;17.168;2022-10-18T11:56:43;20.00;99.90
10400;DHT22;10031;51.180;17.168;2022-10-18T11:59:27;20.10;99.90
10400;DHT22;10031;51.180;17.168;2022-10-18T12:04:30;20.90;99.90
10400;DHT22;10031;51.180;17.168;2022-10-18T12:06:58;20.50;99.90
10400;DHT22;10031;51.180;17.168;2022-10-18T12:12:23;20.30;99.90
10400;DHT22;10031;51.180;17.168;2022-10-18T12:14:56;20.50;99.90
10400;DHT22;10031;51.180;17.168;2022-10-18T12:19:58;20.30;99.90
10400;DHT22;10031;51.180;17.168;2022-10-18T12:22:34;20.30;99.90
10400;DHT22;10031;51.180;17.168;2022-10-18T12:25:00;20.60;99.90
10400;DHT22;10031;51.180;17.168;2022-10-18T12:27:43;20.70;99.90
10400;DHT22;10031;51.180;17.168;2022-10-18T12:30:41;20.70;99.90
10400;DHT22;10031;51.180;17.168;2022-10-18T12:33:13;20.70;99.90
10400;DHT22;10031;51.180;17.168;2022-10-18T12:38:33;20.20;99.90
10400;DHT22;10031;51.180;17.168;2022-10-18T12:41:00;20.20;99.90
10400;DHT22;10031;51.180;17.168;2022-10-18T12:43:28;20.30;99.90
10400;DHT22;10031;51.180;17.168;2022-10-18T12:46:03;20.30;99.90
10400;DHT22;10031;51.180;17.168;2022-10-18T12:48:43;20.30;99.90
10400;DHT22;10031;51.180;17.168;2022-10-18T12:51:18;20.30;99.90
10400;DHT22;10031;51.180;17.168;2022-10-18T12:54:10;20.20;99.90
10400;DHT22;10031;51.180;17.168;2022-10-18T12:56:41;20.20;99.90
10400;DHT22;10031;51.180;17.168;2022-10-18T13:18:23;20.40;99.90
10400;DHT22;10031;51.180;17.168;2022-10-18T13:21:18;20.30;99.90
10400;DHT22;10031;51.180;17.168;2022-10-18T13:29:36;21.20;99.90
10400;DHT22;10031;51.180;17.168;2022-10-18T13:32:34;21.20;99.90
10400;DHT22;10031;51.180;17.168;2022-10-18T13:35:01;21.20;99.90
10400;DHT22;10031;51.180;17.168;2022-10-18T13:37:27;21.40;99.90
10400;DHT22;10031;51.180;17.168;2022-10-18T13:40:14;21.50;99.90
10400;DHT22;10031;51.180;17.168;2022-10-18T13:42:42;21.40;99.90
10400;DHT22;10031;51.180;17.168;2022-10-18T13:45:51;20.90;99.90
10400;DHT22;10031;51.180;17.168;2022-10-18T13:51:12;20.80;99.90
10400;DHT22;10031;51.180;17.168;2022-10-18T13:53:51;20.50;99.90
10400;DHT22;10031;51.180;17.168;2022-10-18T14:07:25;19.60;99.90
10400;DHT22;10031;51.180;17.168;2022-10-18T14:09:56;19.50;99.90
10400;DHT22;10031;51.180;17.168;2022-10-18T14:12:46;19.50;99.90
10400;DHT22;10031;51.180;17.168;2022-10-18T14:15:23;19.40;99.90
10400;DHT22;10031;51.180;17.168;2022-10-18T14:18:01;19.40;99.90
10400;DHT22;10031;51.180;17.168;2022-10-18T14:20:54;18.90;99.90
10400;DHT22;10031;51.180;17.168;2022-10-18T14:23:24;18.80;99.90
10400;DHT22;10031;51.180;17.168;2022-10-18T14:26:06;18.40;99.90
10400;DHT22;10031;51.180;17.168;2022-10-18T14:28:32;18.30;99.90
10400;DHT22;10031;51.180;17.168;2022-10-18T14:31:04;17.90;99.90
10400;DHT22;10031;51.180;17.168;2022-10-18T14:33:44;17.40;99.90
10400;DHT22;10031;51.180;17.168;2022-10-18T14:38:56;16.70;99.90
10400;DHT22;10031;51.180;17.168;2022-10-18T14:41:30;16.50;99.90
10400;DHT22;10031;51.180;17.168;2022-10-18T14:47:13;16.00;99.90
10400;DHT22;10031;51.180;17.168;2022-10-18T14:49:45;15.70;99.90
10400;DHT22;10031;51.180;17.168;2022-10-18T14:52:24;15.30;99.90
10400;DHT22;10031;51.180;17.168;2022-10-18T14:54:53;15.30;99.90
10400;DHT22;10031;51.180;17.168;2022-10-18T14:57:29;15.00;99.90
10400;DHT22;10031;51.180;17.168;2022-10-18T15:00:00;15.10;99.90
10400;DHT22;10031;51.180;17.168;2022-10-18T15:02:34;14.90;99.90
10400;DHT22;10031;51.180;17.168;2022-10-18T15:05:30;14.70;99.90
10400;DHT22;10031;51.180;17.168;2022-10-18T15:07:56;14.80;99.90
10400;DHT22;10031;51.180;17.168;2022-10-18T15:10:35;14.40;99.90
10400;DHT22;10031;51.180;17.168;2022-10-18T15:13:02;14.70;99.90
10400;DHT22;10031;51.180;17.168;2022-10-18T15:15:31;14.50;99.90
10400;DHT22;10031;51.180;17.168;2022-10-18T15:17:58;14.40;99.90
10400;DHT22;10031;51.180;17.168;2022-10-18T15:20:33;14.40;99.90
10400;DHT22;10031;51.180;17.168;2022-10-18T15:23:27;14.50;99.90
10400;DHT22;10031;51.180;17.168;2022-10-18T15:26:07;14.30;99.90
10400;DHT22;10031;51.180;17.168;2022-10-18T15:28:40;14.40;99.90
10400;DHT22;10031;51.180;17.168;2022-10-18T15:31:34;14.10;99.90
10400;DHT22;10031;51.180;17.168;2022-10-18T15:34:15;14.40;99.90
10400;DHT22;10031;51.180;17.168;2022-10-18T15:39:23;14.20;99.90
10400;DHT22;10031;51.180;17.168;2022-10-18T16:00:06;13.90;99.90
10400;DHT22;10031;51.180;17.168;2022-10-18T16:02:32;13.90;99.90
10400;DHT22;10031;51.180;17.168;2022-10-18T16:04:59;13.90;99.90
10400;DHT22;10031;51.180;17.168;2022-10-18T16:07:26;13.90;99.90
10400;DHT22;10031;51.180;17.168;2022-10-18T16:14:43;13.90;99.90
10400;DHT22;10031;51.180;17.168;2022-10-18T16:17:10;13.80;99.90
10400;DHT22;10031;51.180;17.168;2022-10-18T16:19:42;13.90;99.90
10400;DHT22;10031;51.180;17.168;2022-10-18T16:22:12;13.90;99.90
10400;DHT22;10031;51.180;17.168;2022-10-18T16:24:38;13.90;99.90
10400;DHT22;10031;51.180;17.168;2022-10-18T16:27:04;13.90;99.90
10400;DHT22;10031;51.180;17.168;2022-10-18T16:31:58;13.90;99.90
10400;DHT22;10031;51.180;17.168;2022-10-18T16:34:25;13.90;99.90
10400;DHT22;10031;51.180;17.168;2022-10-18T16:36:52;13.90;99.90
10400;DHT22;10031;51.180;17.168;2022-10-18T16:39:19;13.90;99.90
10400;DHT22;10031;51.180;17.168;2022-10-18T16:41:45;14.00;99.90
10400;DHT22;10031;51.180;17.168;2022-10-18T16:44:11;13.90;99.90
10400;DHT22;10031;51.180;17.168;2022-10-18T16:46:37;13.80;99.90
10400;DHT22;10031;51.180;17.168;2022-10-18T16:49:04;13.80;99.90
10400;DHT22;10031;51.180;17.168;2022-10-18T16:51:30;13.70;99.90
10400;DHT22;10031;51.180;17.168;2022-10-18T16:53:58;13.70;99.90
10400;DHT22;10031;51.180;17.168;2022-10-18T16:58:50;13.80;99.90
10400;DHT22;10031;51.180;17.168;2022-10-18T17:01:19;13.70;99.90
10400;DHT22;10031;51.180;17.168;2022-10-18T17:03:46;13.70;99.90
10400;DHT22;10031;51.180;17.168;2022-10-18T17:08:45;13.70;99.90
10400;DHT22;10031;51.180;17.168;2022-10-18T17:11:12;13.70;99.90
10400;DHT22;10031;51.180;17.168;2022-10-18T17:13:39;13.70;99.90
10400;DHT22;10031;51.180;17.168;2022-10-18T17:16:06;13.70;99.90
10400;DHT22;10031;51.180;17.168;2022-10-18T17:18:43;13.50;99.90
10400;DHT22;10031;51.180;17.168;2022-10-18T17:23:35;13.70;99.90
10400;DHT22;10031;51.180;17.168;2022-10-18T17:26:00;13.70;99.90
10400;DHT22;10031;51.180;17.168;2022-10-18T17:30:53;13.70;99.90
10400;DHT22;10031;51.180;17.168;2022-10-18T17:33:19;13.40;99.90
10400;DHT22;10031;51.180;17.168;2022-10-18T17:38:10;13.60;99.90
10400;DHT22;10031;51.180;17.168;2022-10-18T17:40:42;13.50;99.90
10400;DHT22;10031;51.180;17.168;2022-10-18T17:45:34;13.60;99.90
10400;DHT22;10031;51.180;17.168;2022-10-18T17:48:00;13.60;99.90
10400;DHT22;10031;51.180;17.168;2022-10-18T17:50:32;13.60;99.90
10400;DHT22;10031;51.180;17.168;2022-10-18T17:52:58;13.60;99.90
10400;DHT22;10031;51.180;17.168;2022-10-18T17:55:25;13.80;99.90
10400;DHT22;10031;51.180;17.168;2022-10-18T17:57:54;13.60;99.90
10400;DHT22;10031;51.180;17.168;2022-10-18T18:00:20;13.60;99.90
10400;DHT22;10031;51.180;17.168;2022-10-18T18:05:15;13.70;99.90
10400;DHT22;10031;51.180;17.168;2022-10-18T18:07:41;13.70;99.90
10400;DHT22;10031;51.180;17.168;2022-10-18T18:12:41;13.60;99.90
10400;DHT22;10031;51.180;17.168;2022-10-18T18:15:10;13.60;99.90
10400;DHT22;10031;51.180;17.168;2022-10-18T18:20:02;13.70;99.90
10400;DHT22;10031;51.180;17.168;2022-10-18T18:24:59;13.60;99.90
10400;DHT22;10031;51.180;17.168;2022-10-18T18:27:32;13.60;99.90
10400;DHT22;10031;51.180;17.168;2022-10-18T18:30:02;13.60;99.90
10400;DHT22;10031;51.180;17.168;2022-10-18T18:34:54;13.60;99.90
10400;DHT22;10031;51.180;17.168;2022-10-18T18:37:23;13.60;99.90
10400;DHT22;10031;51.180;17.168;2022-10-18T18:44:47;13.50;99.90
10400;DHT22;10031;51.180;17.168;2022-10-18T18:47:14;13.50;99.90
10400;DHT22;10031;51.180;17.168;2022-10-18T18:49:45;13.50;99.90
10400;DHT22;10031;51.180;17.168;2022-10-18T18:52:11;13.40;99.90
10400;DHT22;10031;51.180;17.168;2022-10-18T18:57:03;13.50;99.90
10400;DHT22;10031;51.180;17.168;2022-10-18T18:59:32;13.50;99.90
10400;DHT22;10031;51.180;17.168;2022-10-18T19:01:58;13.60;99.90
10400;DHT22;10031;51.180;17.168;2022-10-18T19:04:24;13.60;99.90
10400;DHT22;10031;51.180;17.168;2022-10-18T19:09:17;13.60;99.90
10400;DHT22;10031;51.180;17.168;2022-10-18T19:11:46;13.60;99.90
10400;DHT22;10031;51.180;17.168;2022-10-18T19:14:12;13.60;99.90
10400;DHT22;10031;51.180;17.168;2022-10-18T19:16:46;13.50;99.90
10400;DHT22;10031;51.180;17.168;2022-10-18T19:19:15;13.60;99.90
10400;DHT22;10031;51.180;17.168;2022-10-18T19:24:10;13.60;99.90
10400;DHT22;10031;51.180;17.168;2022-10-18T19:26:42;13.60;99.90
10400;DHT22;10031;51.180;17.168;2022-10-18T19:29:22;13.60;99.90
10400;DHT22;10031;51.180;17.168;2022-10-18T19:31:50;13.60;99.90
10400;DHT22;10031;51.180;17.168;2022-10-18T19:34:19;13.60;99.90
10400;DHT22;10031;51.180;17.168;2022-10-18T19:36:46;13.50;99.90
10400;DHT22;10031;51.180;17.168;2022-10-18T19:39:19;13.50;99.90
10400;DHT22;10031;51.180;17.168;2022-10-18T19:41:50;13.50;99.90
10400;DHT22;10031;51.180;17.168;2022-10-18T19:57:20;13.50;99.90
10400;DHT22;10031;51.180;17.168;2022-10-18T20:04:39;13.40;99.90
10400;DHT22;10031;51.180;17.168;2022-10-18T20:09:32;13.50;99.90
10400;DHT22;10031;51.180;17.168;2022-10-18T20:14:26;13.50;99.90
10400;DHT22;10031;51.180;17.168;2022-10-18T20:16:51;13.50;99.90
10400;DHT22;10031;51.180;17.168;2022-10-18T20:19:17;13.50;99.90
10400;DHT22;10031;51.180;17.168;2022-10-18T20:24:10;13.50;99.90
10400;DHT22;10031;51.180;17.168;2022-10-18T20:26:36;13.50;99.90
10400;DHT22;10031;51.180;17.168;2022-10-18T20:29:02;13.40;99.90
10400;DHT22;10031;51.180;17.168;2022-10-18T20:31:33;13.50;99.90
10400;DHT22;10031;51.180;17.168;2022-10-18T20:34:07;13.50;99.90
10400;DHT22;10031;51.180;17.168;2022-10-18T20:36:33;13.50;99.90
10400;DHT22;10031;51.180;17.168;2022-10-18T20:41:31;13.50;99.90
10400;DHT22;10031;51.180;17.168;2022-10-18T20:44:00;13.50;99.90
10400;DHT22;10031;51.180;17.168;2022-10-18T20:46:29;13.50;99.90
10400;DHT22;10031;51.180;17.168;2022-10-18T20:51:22;13.50;99.90
10400;DHT22;10031;51.180;17.168;2022-10-18T20:53:48;13.50;99.90
10400;DHT22;10031;51.180;17.168;2022-10-18T20:56:17;13.50;99.90
10400;DHT22;10031;51.180;17.168;2022-10-18T20:58:48;13.50;99.90
10400;DHT22;10031;51.180;17.168;2022-10-18T21:01:17;13.50;99.90
10400;DHT22;10031;51.180;17.168;2022-10-18T21:03:48;13.50;99.90
10400;DHT22;10031;51.180;17.168;2022-10-18T21:06:21;13.50;99.90
10400;DHT22;10031;51.180;17.168;2022-10-18T21:09:24;13.50;99.90
10400;DHT22;10031;51.180;17.168;2022-10-18T21:11:46;13.50;99.90
10400;DHT22;10031;51.180;17.168;2022-10-18T21:14:16;13.50;99.90
10400;DHT22;10031;51.180;17.168;2022-10-18T21:16:43;13.50;99.90
10400;DHT22;10031;51.180;17.168;2022-10-18T21:21:44;13.50;99.90
10400;DHT22;10031;51.180;17.168;2022-10-18T21:24:11;13.60;99.90
10400;DHT22;10031;51.180;17.168;2022-10-18T21:26:37;13.50;99.90
10400;DHT22;10031;51.180;17.168;2022-10-18T21:29:05;13.50;99.90
10400;DHT22;10031;51.180;17.168;2022-10-18T21:31:34;13.50;99.90
10400;DHT22;10031;51.180;17.168;2022-10-18T21:34:02;13.50;99.90
10400;DHT22;10031;51.180;17.168;2022-10-18T21:36:33;13.50;99.90
10400;DHT22;10031;51.180;17.168;2022-10-18T21:39:00;13.50;99.90
10400;DHT22;10031;51.180;17.168;2022-10-18T21:41:26;13.50;99.90
10400;DHT22;10031;51.180;17.168;2022-10-18T21:43:53;13.50;99.90
10400;DHT22;10031;51.180;17.168;2022-10-18T21:46:21;13.50;99.90
10400;DHT22;10031;51.180;17.168;2022-10-18T21:48:50;13.50;99.90
10400;DHT22;10031;51.180;17.168;2022-10-18T21:51:18;13.50;99.90
10400;DHT22;10031;51.180;17.168;2022-10-18T21:53:46;13.50;99.90
10400;DHT22;10031;51.180;17.168;2022-10-18T21:56:14;13.60;99.90
10400;DHT22;10031;51.180;17.168;2022-10-18T21:58:41;13.50;99.90
10400;DHT22;10031;51.180;17.168;2022-10-18T22:01:13;13.50;99.90
10400;DHT22;10031;51.180;17.168;2022-10-18T22:06:08;13.50;99.90
10400;DHT22;10031;51.180;17.168;2022-10-18T22:08:56;13.60;99.90
10400;DHT22;10031;51.180;17.168;2022-10-18T22:11:25;13.50;99.90
10400;DHT22;10031;51.180;17.168;2022-10-18T22:13:52;13.50;99.90
10400;DHT22;10031;51.180;17.168;2022-10-18T22:16:17;13.50;99.90
10400;DHT22;10031;51.180;17.168;2022-10-18T22:18:46;13.50;99.90
10400;DHT22;10031;51.180;17.168;2022-10-18T22:23:45;13.50;99.90
10400;DHT22;10031;51.180;17.168;2022-10-18T22:26:20;13.40;99.90
10400;DHT22;10031;51.180;17.168;2022-10-18T22:28:51;13.40;99.90
10400;DHT22;10031;51.180;17.168;2022-10-18T22:31:22;13.40;99.90
10400;DHT22;10031;51.180;17.168;2022-10-18T22:33:57;13.40;99.90
10400;DHT22;10031;51.180;17.168;2022-10-18T22:43:49;13.30;99.90
10400;DHT22;10031;51.180;17.168;2022-10-18T22:46:17;13.30;99.90
10400;DHT22;10031;51.180;17.168;2022-10-18T22:53:37;13.30;99.90
10400;DHT22;10031;51.180;17.168;2022-10-18T23:01:22;13.30;99.90
10400;DHT22;10031;51.180;17.168;2022-10-18T23:03:55;13.30;99.90
10400;DHT22;10031;51.180;17.168;2022-10-18T23:06:29;13.20;99.90
10400;DHT22;10031;51.180;17.168;2022-10-18T23:09:02;13.20;99.90
10400;DHT22;10031;51.180;17.168;2022-10-18T23:16:21;13.20;99.90
10400;DHT22;10031;51.180;17.168;2022-10-18T23:18:49;13.10;99.90
10400;DHT22;10031;51.180;17.168;2022-10-18T23:26:10;12.90;99.90
10400;DHT22;10031;51.180;17.168;2022-10-18T23:28:38;12.80;99.90
10400;DHT22;10031;51.180;17.168;2022-10-18T23:31:09;12.80;99.90
10400;DHT22;10031;51.180;17.168;2022-10-18T23:36:01;12.70;99.90
10400;DHT22;10031;51.180;17.168;2022-10-18T23:38:29;12.60;99.90
10400;DHT22;10031;51.180;17.168;2022-10-18T23:50:45;12.40;99.90
10400;DHT22;10031;51.180;17.168;2022-10-18T23:53:11;12.20;99.90
10400;DHT22;10031;51.180;17.168;2022-10-18T23:55:37;12.30;99.90
10400;DHT22;10031;51.180;17.168;2022-10-18T23:58:02;12.20;99.90
